Time;durP1;ratioP1;P1;durP2;ratioP2;P2;SDS_P1;SDS_P2;PMS_P1;PMS_P2;Temp;Humidity;BMP_temperature;BMP_pressure;BME280_temperature;BME280_humidity;BME280_pressure;Samples;Min_cycle;Max_cycle;Signal;HPM_P1;HPM_P2
2022/06/11 00:01:01;;;;;;;5.35;3.30;;;;;;;17.20;98.86;101975.06;5023453;28;20128;-77
2022/06/11 00:03:27;;;;;;;4.40;2.80;;;;;;;17.19;98.21;101976.03;5032566;28;20405;-77
2022/06/11 00:05:52;;;;;;;3.97;3.00;;;;;;;17.21;97.63;101976.72;5032248;28;20025;-77
2022/06/11 00:08:19;;;;;;;4.43;2.67;;;;;;;17.14;97.31;101967.72;5015010;28;20031;-77
2022/06/11 00:10:45;;;;;;;4.05;2.67;;;;;;;17.22;96.89;101991.72;5032594;28;20044;-77
2022/06/11 00:13:10;;;;;;;6.72;4.20;;;;;;;17.18;98.22;101973.53;5050851;28;20029;-77
2022/06/11 00:15:36;;;;;;;7.93;3.78;;;;;;;17.08;99.55;101976.38;5032413;28;20474;-77
2022/06/11 00:18:02;;;;;;;6.78;3.28;;;;;;;17.02;100.00;101995.69;5047033;28;20112;-77
2022/06/11 00:20:29;;;;;;;7.57;4.00;;;;;;;17.03;99.62;101986.72;5049846;28;20025;-77
2022/06/11 00:22:54;;;;;;;6.07;4.30;;;;;;;17.04;99.70;101991.03;5032648;28;20473;-77
2022/06/11 00:25:20;;;;;;;7.40;3.42;;;;;;;16.93;99.08;101962.03;5016567;28;20104;-77
2022/06/11 00:27:47;;;;;;;7.53;3.50;;;;;;;16.99;99.27;101982.69;5031959;28;20087;-76
2022/06/11 00:30:14;;;;;;;7.88;3.70;;;;;;;16.93;99.63;101983.34;5032385;28;20021;-76
2022/06/11 00:32:39;;;;;;;7.18;3.95;;;;;;;16.85;100.00;101986.81;5030599;28;20112;-76
2022/06/11 00:35:07;;;;;;;9.10;3.58;;;;;;;16.72;100.00;101983.75;5031213;28;20103;-77
2022/06/11 00:37:33;;;;;;;7.85;4.75;;;;;;;16.49;100.00;101956.91;5032082;28;20615;-76
2022/06/11 00:39:59;;;;;;;6.97;4.22;;;;;;;16.38;100.00;101953.53;5031082;28;20033;-76
2022/06/11 00:42:28;;;;;;;7.30;3.95;;;;;;;16.45;100.00;101977.69;5014757;28;20040;-77
2022/06/11 00:45:19;;;;;;;8.98;4.35;;;;;;;16.22;100.00;101956.13;5049374;28;20033;-77
2022/06/11 00:47:50;;;;;;;8.23;4.30;;;;;;;16.23;100.00;101974.59;5046852;28;20017;-76
2022/06/11 00:50:38;;;;;;;8.13;4.50;;;;;;;16.20;100.00;101974.94;5031056;28;20495;-77
2022/06/11 00:53:11;;;;;;;6.20;4.00;;;;;;;16.18;100.00;101966.28;5049832;28;20028;-77
2022/06/11 00:55:38;;;;;;;4.25;3.28;;;;;;;16.09;100.00;101953.06;5046996;28;20159;-76
2022/06/11 00:58:08;;;;;;;5.80;3.08;;;;;;;16.12;100.00;101966.91;5048275;28;20068;-76
2022/06/11 01:00:42;;;;;;;6.70;4.10;;;;;;;16.08;100.00;101962.06;5021736;28;20033;-77
2022/06/11 01:03:10;;;;;;;7.60;3.97;;;;;;;16.04;100.00;101970.34;5032148;28;20019;-77
2022/06/11 01:05:37;;;;;;;8.70;4.47;;;;;;;16.02;100.00;101961.69;5031198;28;20024;-77
2022/06/11 01:08:21;;;;;;;11.63;4.43;;;;;;;15.99;100.00;101966.50;5031346;28;20021;-77
2022/06/11 01:10:59;;;;;;;9.80;4.50;;;;;;;15.99;100.00;101964.66;5028037;28;20048;-77
2022/06/11 01:14:06;;;;;;;7.18;4.03;;;;;;;15.93;100.00;101962.63;5027816;28;20033;-77
2022/06/11 01:16:34;;;;;;;8.23;4.03;;;;;;;15.91;100.00;101963.78;5023237;28;20058;-77
2022/06/11 01:19:28;;;;;;;4.65;3.88;;;;;;;15.86;100.00;101960.78;5048586;28;20033;-77
2022/06/11 01:22:26;;;;;;;8.20;3.78;;;;;;;15.76;100.00;101961.69;5047500;28;20135;-77
2022/06/11 01:25:33;;;;;;;9.18;3.67;;;;;;;15.63;100.00;101953.28;5029621;28;20044;-77
2022/06/11 01:28:26;;;;;;;8.13;3.35;;;;;;;15.48;100.00;101947.66;5031040;28;20017;-77
2022/06/11 01:31:22;;;;;;;6.25;2.95;;;;;;;15.43;100.00;101950.81;5049601;28;20055;-77
2022/06/11 01:34:21;;;;;;;9.07;3.92;;;;;;;15.42;100.00;101937.69;5049180;28;20033;-77
2022/06/11 01:36:52;;;;;;;7.22;3.30;;;;;;;15.34;100.00;101919.81;5041581;28;20037;-77
2022/06/11 01:39:25;;;;;;;6.13;2.80;;;;;;;15.42;99.94;101938.50;5031805;28;20024;-78
2022/06/11 01:41:58;;;;;;;6.22;3.35;;;;;;;15.19;100.00;101916.06;5032794;28;20111;-78
2022/06/11 01:44:44;;;;;;;6.15;3.38;;;;;;;15.24;100.00;101940.34;5050032;28;20040;-78
2022/06/11 01:47:13;;;;;;;7.45;3.45;;;;;;;15.22;100.00;101939.66;5049530;28;20552;-77
2022/06/11 01:49:46;;;;;;;7.93;3.47;;;;;;;14.99;100.00;101910.06;5049547;28;20021;-78
2022/06/11 01:52:37;;;;;;;5.53;2.75;;;;;;;15.10;100.00;101936.41;5047701;28;20466;-77
2022/06/11 01:55:17;;;;;;;20.23;3.28;;;;;;;14.98;100.00;101919.03;5040877;28;20033;-77
2022/06/11 01:58:12;;;;;;;4.45;2.78;;;;;;;14.91;99.69;101924.13;5057883;28;20449;-78
2022/06/11 02:00:46;;;;;;;6.95;2.80;;;;;;;14.90;98.96;101917.13;5068267;28;20457;-77
2022/06/11 02:03:30;;;;;;;7.93;2.85;;;;;;;14.80;97.78;101900.44;5070650;28;20074;-78
2022/06/11 02:06:24;;;;;;;7.78;2.63;;;;;;;14.86;97.20;101913.09;5069547;28;20508;-77
2022/06/11 02:09:13;;;;;;;9.75;2.30;;;;;;;14.80;96.69;101917.19;5065419;28;20044;-77
2022/06/11 02:11:50;;;;;;;10.40;3.33;;;;;;;14.79;96.20;101915.53;5072050;28;20039;-77
2022/06/11 02:14:29;;;;;;;8.55;2.10;;;;;;;14.68;96.30;101913.13;5072335;28;20166;-77
2022/06/11 02:17:17;;;;;;;6.85;2.08;;;;;;;14.65;95.61;101910.75;5075358;28;20669;-77
2022/06/11 02:19:54;;;;;;;7.18;1.95;;;;;;;14.57;96.24;101902.72;5068193;28;20028;-77
2022/06/11 02:22:32;;;;;;;8.82;2.08;;;;;;;14.65;95.77;101910.75;5073168;28;20020;-78
2022/06/11 02:25:11;;;;;;;8.35;1.92;;;;;;;14.58;95.37;101917.66;5071356;28;20024;-77
2022/06/11 02:27:40;;;;;;;9.98;2.25;;;;;;;14.44;95.77;101907.50;5071353;28;20028;-77
2022/06/11 02:30:10;;;;;;;5.78;1.60;;;;;;;14.48;95.76;101922.16;5072430;28;20024;-77
2022/06/11 02:32:35;;;;;;;7.03;1.83;;;;;;;14.51;95.64;101911.25;5071493;28;20071;-77
2022/06/11 02:35:06;;;;;;;9.35;1.90;;;;;;;14.44;95.16;101900.38;5071178;28;20110;-77
2022/06/11 02:37:40;;;;;;;5.13;2.03;;;;;;;14.45;95.84;101923.28;5071614;28;20025;-77
2022/06/11 02:40:18;;;;;;;8.27;2.53;;;;;;;14.37;96.23;101925.84;5070631;28;20834;-77
2022/06/11 02:42:45;;;;;;;4.70;1.75;;;;;;;14.37;96.52;101921.38;5069379;28;20027;-78
2022/06/11 02:45:12;;;;;;;6.50;2.33;;;;;;;14.25;96.00;101901.31;5088119;28;20157;-78
2022/06/11 02:47:39;;;;;;;8.98;2.20;;;;;;;14.19;96.08;101897.44;5054405;28;20500;-77
2022/06/11 02:50:05;;;;;;;9.38;2.28;;;;;;;14.35;95.75;101926.00;5069594;28;20158;-78
2022/06/11 02:52:31;;;;;;;9.20;1.95;;;;;;;14.21;95.77;101899.94;5072835;28;20032;-78
2022/06/11 02:54:56;;;;;;;5.78;1.70;;;;;;;14.30;95.99;101916.81;5072189;28;20422;-78
2022/06/11 02:57:29;;;;;;;7.47;1.80;;;;;;;14.30;95.87;101925.59;5071675;28;20512;-78
2022/06/11 02:59:55;;;;;;;7.75;2.03;;;;;;;14.23;96.07;101927.19;5070616;28;20473;-77
2022/06/11 03:02:22;;;;;;;7.93;1.83;;;;;;;14.03;96.48;101902.56;5070256;28;20089;-78
2022/06/11 03:04:48;;;;;;;5.15;1.88;;;;;;;14.15;96.73;101924.44;5072461;28;20016;-77
2022/06/11 03:07:13;;;;;;;7.28;1.80;;;;;;;14.12;96.51;101922.06;5069633;28;20032;-77
2022/06/11 03:09:40;;;;;;;7.15;1.73;;;;;;;14.17;96.86;101935.72;5069793;28;20025;-77
2022/06/11 03:12:08;;;;;;;7.07;2.17;;;;;;;14.13;96.49;101934.34;5071253;28;20024;-78
2022/06/11 03:14:34;;;;;;;8.55;1.90;;;;;;;14.13;97.02;101937.00;5072629;28;20021;-78
2022/06/11 03:16:59;;;;;;;7.65;1.90;;;;;;;14.13;96.83;101934.34;5071307;28;20028;-77
2022/06/11 03:19:25;;;;;;;6.22;2.03;;;;;;;14.09;96.89;101935.63;5070438;28;20036;-78
2022/06/11 03:21:54;;;;;;;10.93;2.80;;;;;;;14.02;97.76;101931.91;5069196;28;20048;-77
2022/06/11 03:24:20;;;;;;;5.03;1.75;;;;;;;13.76;98.24;101901.56;5086729;28;20039;-78
2022/06/11 03:26:47;;;;;;;5.93;1.70;;;;;;;13.98;98.06;101937.50;5071522;28;20770;-77
2022/06/11 03:29:15;;;;;;;9.82;2.35;;;;;;;13.92;97.92;101926.63;5087736;28;20028;-77
2022/06/11 03:31:42;;;;;;;4.95;1.83;;;;;;;13.99;98.16;101943.63;5054291;28;20036;-77
2022/06/11 03:34:08;;;;;;;7.70;2.00;;;;;;;13.95;98.15;101937.78;5072082;28;20558;-77
2022/06/11 03:36:33;;;;;;;8.50;2.20;;;;;;;13.92;98.60;101950.53;5070469;28;20036;-77
2022/06/11 03:38:58;;;;;;;7.63;2.22;;;;;;;13.82;99.52;101937.25;5053290;28;20043;-77
2022/06/11 03:41:24;;;;;;;7.97;1.98;;;;;;;13.82;99.56;101941.75;5052965;28;20052;-77
2022/06/11 03:43:50;;;;;;;4.57;1.95;;;;;;;13.86;100.00;101949.28;5069767;28;20111;-77
2022/06/11 03:46:17;;;;;;;7.28;2.05;;;;;;;13.79;99.82;101937.56;5068870;28;20082;-77
2022/06/11 03:48:43;;;;;;;8.27;2.28;;;;;;;13.76;99.61;101932.53;5069981;28;20120;-77
2022/06/11 03:51:10;;;;;;;8.77;1.95;;;;;;;13.89;100.00;101959.63;5068371;28;20032;-77
2022/06/11 03:53:37;;;;;;;8.48;2.22;;;;;;;13.67;100.00;101928.09;5053087;28;20559;-77
2022/06/11 03:56:04;;;;;;;9.20;2.10;;;;;;;13.87;100.00;101964.22;5069610;28;20097;-77
2022/06/11 03:58:30;;;;;;;12.07;2.15;;;;;;;13.71;100.00;101929.50;5055584;28;20477;-77
2022/06/11 04:01:16;;;;;;;7.15;2.25;;;;;;;13.91;100.00;101968.25;5049427;28;20048;-78
2022/06/11 04:04:03;;;;;;;6.63;2.17;;;;;;;13.98;100.00;101965.88;5050560;28;20087;-78
2022/06/11 04:06:37;;;;;;;9.20;2.03;;;;;;;13.98;100.00;101964.03;5049340;28;20575;-79
2022/06/11 04:09:08;;;;;;;8.25;2.28;;;;;;;13.92;100.00;101969.09;5030910;28;20035;-78
2022/06/11 04:11:34;;;;;;;;;;;;;;;13.85;100.00;101968.84;5051772;28;20111;-78
2022/06/11 04:13:59;;;;;;;7.63;2.55;;;;;;;13.71;100.00;101945.41;5052269;28;19963;-78
2022/06/11 04:16:30;;;;;;;9.30;2.60;;;;;;;13.86;100.00;101954.56;5033638;28;20055;-79
2022/06/11 04:18:58;;;;;;;9.32;2.40;;;;;;;13.99;100.00;101970.19;5051737;28;20090;-78
2022/06/11 04:21:27;;;;;;;7.30;2.25;;;;;;;13.90;100.00;101950.66;5050496;28;20112;-78
2022/06/11 04:23:55;;;;;;;5.28;2.13;;;;;;;13.99;100.00;101965.69;5034122;28;20028;-78
2022/06/11 04:26:28;;;;;;;8.20;1.83;;;;;;;13.94;100.00;101959.19;5051143;28;20050;-78
2022/06/11 04:28:55;;;;;;;8.85;1.55;;;;;;;13.95;100.00;101969.63;5050896;28;20017;-78
2022/06/11 04:31:21;;;;;;;7.80;3.13;;;;;;;13.95;100.00;101959.00;5046341;28;20036;-78
2022/06/11 04:33:49;;;;;;;11.27;2.75;;;;;;;14.11;100.00;101979.66;5050648;28;20016;-78
2022/06/11 04:36:16;;;;;;;7.75;2.28;;;;;;;14.11;100.00;101984.09;5051223;28;20412;-78
2022/06/11 04:38:42;;;;;;;12.10;2.42;;;;;;;14.16;100.00;101984.53;5010295;28;20095;-78
2022/06/11 04:41:08;;;;;;;9.10;2.35;;;;;;;14.24;100.00;101979.31;5032011;28;20025;-78
2022/06/11 04:43:34;;;;;;;6.85;2.60;;;;;;;14.28;100.00;101986.00;5030488;28;20119;-78
2022/06/11 04:46:01;;;;;;;10.35;2.78;;;;;;;14.27;100.00;101949.81;5031820;28;20480;-78
2022/06/11 04:48:26;;;;;;;7.40;3.05;;;;;;;14.26;100.00;101953.44;5033682;28;20029;-78
2022/06/11 04:50:52;;;;;;;10.10;2.45;;;;;;;14.41;100.00;101975.03;5016578;28;20041;-78
2022/06/11 04:53:18;;;;;;;5.65;2.28;;;;;;;14.59;100.00;101969.81;5029215;28;20023;-78
2022/06/11 04:55:43;;;;;;;9.60;2.92;;;;;;;14.43;100.00;101938.53;5045112;28;20025;-78
2022/06/11 04:58:08;;;;;;;9.93;2.08;;;;;;;14.90;100.00;101975.63;5033247;28;20146;-78
2022/06/11 05:00:34;;;;;;;9.13;2.50;;;;;;;15.00;98.75;101971.06;5065906;28;20400;-78
2022/06/11 05:03:00;;;;;;;12.65;2.80;;;;;;;15.14;97.46;101983.00;5082579;28;20028;-78
2022/06/11 05:05:26;;;;;;;12.38;2.50;;;;;;;15.17;97.05;101985.34;5066979;28;20713;-78
2022/06/11 05:07:52;;;;;;;7.53;2.20;;;;;;;15.18;97.33;101978.22;5064471;28;20031;-78
2022/06/11 05:10:21;;;;;;;9.43;2.35;;;;;;;15.19;96.51;101974.56;5067776;28;20024;-78
2022/06/11 05:12:47;;;;;;;7.72;3.00;;;;;;;15.32;96.28;101966.19;5065645;28;20024;-78
2022/06/11 05:15:13;;;;;;;7.63;2.10;;;;;;;15.39;96.01;101980.53;5048926;28;20032;-79
2022/06/11 05:17:40;;;;;;;9.85;2.25;;;;;;;15.38;95.43;101960.25;5067804;28;20035;-79
2022/06/11 05:20:06;;;;;;;9.98;2.97;;;;;;;15.53;95.45;101982.66;5048881;28;20086;-79
2022/06/11 05:22:31;;;;;;;7.78;2.40;;;;;;;15.61;95.21;101980.06;5066463;28;20040;-79
2022/06/11 05:24:57;;;;;;;11.65;2.80;;;;;;;15.67;94.89;101991.06;5067753;28;20032;-79
2022/06/11 05:27:25;;;;;;;10.88;2.85;;;;;;;15.63;94.40;101988.72;5067250;28;20431;-78
2022/06/11 05:29:59;;;;;;;8.73;2.40;;;;;;;15.89;94.11;101982.56;5063565;28;20402;-78
2022/06/11 05:32:29;;;;;;;14.25;2.17;;;;;;;15.96;92.91;101978.31;5067455;28;20036;-79
2022/06/11 05:34:56;;;;;;;11.70;2.33;;;;;;;16.13;92.39;101987.19;5067654;28;20039;-79
2022/06/11 05:37:21;;;;;;;11.85;2.55;;;;;;;16.14;91.89;101986.22;5066529;28;20522;-79
2022/06/11 05:39:47;;;;;;;10.13;2.15;;;;;;;16.37;92.04;101990.97;5067903;28;20028;-79
2022/06/11 05:42:14;;;;;;;12.15;2.78;;;;;;;16.47;90.52;101969.56;5067201;28;20036;-79
2022/06/11 05:44:40;;;;;;;10.35;2.50;;;;;;;16.45;90.33;101991.84;5068324;28;20028;-79
2022/06/11 05:47:07;;;;;;;11.88;2.72;;;;;;;16.64;90.27;101990.75;5072433;28;20029;-79
2022/06/11 05:49:37;;;;;;;9.65;2.95;;;;;;;16.65;89.82;101983.59;5067407;28;20570;-79
2022/06/11 05:52:07;;;;;;;12.75;3.05;;;;;;;16.57;89.83;101978.22;5065808;28;20028;-79
2022/06/11 05:54:35;;;;;;;10.57;2.72;;;;;;;16.83;89.38;101976.34;5071811;28;20036;-78
2022/06/11 05:57:06;;;;;;;13.70;3.33;;;;;;;16.92;88.26;101973.66;5061189;28;20090;-78
2022/06/11 05:59:35;;;;;;;12.50;2.33;;;;;;;17.19;88.70;101986.72;5050045;28;20147;-78
2022/06/11 06:02:05;;;;;;;12.63;2.95;;;;;;;17.33;87.02;101997.72;5031154;28;20028;-79
2022/06/11 06:04:30;;;;;;;15.98;3.17;;;;;;;17.27;86.82;102000.06;5031623;28;20033;-79
2022/06/11 06:06:56;;;;;;;11.77;2.83;;;;;;;17.43;88.50;101995.72;5033876;28;20400;-79
2022/06/11 06:09:21;;;;;;;9.48;2.78;;;;;;;17.38;88.67;102004.25;5034395;28;20033;-79
2022/06/11 06:11:46;;;;;;;15.27;3.67;;;;;;;17.44;87.17;102000.91;5053121;28;20032;-79
2022/06/11 06:14:12;;;;;;;15.82;3.35;;;;;;;17.39;86.50;101999.72;5035455;28;20029;-79
2022/06/11 06:16:37;;;;;;;12.38;3.20;;;;;;;17.40;86.31;101991.56;5001108;28;20132;-78
2022/06/11 06:19:03;;;;;;;15.45;3.47;;;;;;;17.64;86.75;102000.56;5034013;28;20029;-78
2022/06/11 06:21:32;;;;;;;15.82;3.20;;;;;;;17.72;86.21;102003.19;5014605;28;20399;-78
2022/06/11 06:23:57;;;;;;;15.27;2.88;;;;;;;17.92;86.06;101985.03;5029249;28;20028;-79
2022/06/11 06:26:23;;;;;;;12.57;3.35;;;;;;;17.93;85.67;102009.91;5031081;28;20041;-78
2022/06/11 06:28:50;;;;;;;11.55;3.40;;;;;;;18.13;85.15;101999.66;5048717;28;20025;-78
2022/06/11 06:31:16;;;;;;;15.32;3.67;;;;;;;18.31;84.11;101986.88;5013721;28;20508;-78
2022/06/11 06:33:42;;;;;;;20.02;3.72;;;;;;;18.56;82.63;102011.69;5030892;28;20425;-78
2022/06/11 06:36:08;;;;;;;13.95;3.70;;;;;;;19.06;81.13;102013.09;5048009;28;20053;-78
2022/06/11 06:38:35;;;;;;;20.52;3.67;;;;;;;19.40;79.50;102008.31;5048793;28;20029;-78
2022/06/11 06:41:01;;;;;;;17.25;3.03;;;;;;;19.81;78.67;102016.00;5028849;28;20443;-78
2022/06/11 06:43:27;;;;;;;19.55;3.47;;;;;;;20.03;77.23;102025.81;5029705;28;20441;-78
2022/06/11 06:45:53;;;;;;;21.25;3.53;;;;;;;19.83;77.32;102016.66;5045124;28;20268;-78
2022/06/11 06:48:19;;;;;;;13.77;3.65;;;;;;;20.10;77.04;102031.31;5028439;28;20538;-78
2022/06/11 06:50:44;;;;;;;22.08;4.35;;;;;;;20.38;76.14;102033.31;5014905;28;20026;-78
2022/06/11 06:53:10;;;;;;;14.85;3.60;;;;;;;20.65;74.51;102037.22;5046761;28;20044;-78
2022/06/11 06:55:35;;;;;;;12.48;2.72;;;;;;;20.72;74.22;102025.53;5030492;28;20380;-78
2022/06/11 06:58:01;;;;;;;15.30;3.03;;;;;;;20.99;73.78;102033.03;5046955;28;20527;-79
2022/06/11 07:00:27;;;;;;;12.05;3.15;;;;;;;20.67;73.31;102032.50;5068012;28;20458;-78
2022/06/11 07:02:54;;;;;;;12.75;2.90;;;;;;;21.07;73.14;102035.59;5067728;28;20028;-78
2022/06/11 07:05:20;;;;;;;15.63;3.45;;;;;;;20.99;72.52;102035.72;5049076;28;20101;-78
2022/06/11 07:07:47;;;;;;;12.55;3.03;;;;;;;20.94;73.13;102026.38;5066789;28;20028;-78
2022/06/11 07:10:13;;;;;;;17.90;4.13;;;;;;;20.81;72.46;102049.56;5033952;28;20096;-77
2022/06/11 07:12:39;;;;;;;15.50;3.83;;;;;;;21.01;73.26;102022.94;5064882;28;20039;-78
2022/06/11 07:15:06;;;;;;;17.30;3.13;;;;;;;21.80;73.52;102035.44;5047837;28;20032;-77
2022/06/11 07:17:37;;;;;;;14.13;3.50;;;;;;;22.02;70.00;102047.81;5068055;28;20028;-74
2022/06/11 07:20:12;;;;;;;17.80;3.72;;;;;;;22.63;68.80;102049.81;5068280;28;20047;-75
2022/06/11 07:22:43;;;;;;;15.32;4.10;;;;;;;23.14;68.31;102056.63;5065796;28;20122;-75
2022/06/11 07:25:10;;;;;;;9.43;3.05;;;;;;;22.87;67.48;102059.22;5067008;28;20425;-75
2022/06/11 07:27:49;;;;;;;19.58;4.50;;;;;;;22.27;68.45;102045.50;5067484;28;20318;-75
2022/06/11 07:30:21;;;;;;;17.02;3.25;;;;;;;22.73;67.53;102055.66;5068266;28;20035;-75
2022/06/11 07:32:49;;;;;;;18.10;4.85;;;;;;;21.65;69.79;102052.50;5067338;28;20032;-74
2022/06/11 07:35:16;;;;;;;15.00;2.97;;;;;;;22.52;69.48;102059.28;5067573;28;20031;-75
2022/06/11 07:37:44;;;;;;;11.85;3.22;;;;;;;22.33;68.64;102046.56;5083690;28;20420;-75
2022/06/11 07:40:11;;;;;;;12.57;3.42;;;;;;;23.59;67.76;102063.09;5062686;28;20131;-75
2022/06/11 07:42:37;;;;;;;21.38;3.40;;;;;;;24.04;66.10;102059.78;5068382;28;20040;-75
2022/06/11 07:45:03;;;;;;;14.60;3.88;;;;;;;24.25;64.17;102068.63;5068150;28;20031;-75
2022/06/11 07:50:13;;;;;;;8.70;2.38;;;;;;;24.80;60.92;102051.03;5067331;28;20167;-75
2022/06/11 07:52:40;;;;;;;16.55;3.35;;;;;;;24.93;60.62;102074.41;5068152;28;20028;-75
2022/06/11 07:55:07;;;;;;;15.65;3.50;;;;;;;25.22;59.29;102070.34;5064916;28;20020;-75
2022/06/11 07:57:32;;;;;;;12.35;3.00;;;;;;;25.26;59.15;102076.13;5060106;28;20441;-74
2022/06/11 07:59:58;;;;;;;13.65;3.47;;;;;;;25.70;59.82;102071.63;5047008;28;20036;-75
2022/06/11 08:02:25;;;;;;;11.85;3.20;;;;;;;25.48;58.63;102086.56;5024266;28;20041;-74
2022/06/11 08:04:51;;;;;;;17.98;3.70;;;;;;;25.61;57.83;102087.31;5030646;28;20071;-75
2022/06/11 08:07:16;;;;;;;11.18;3.63;;;;;;;25.84;57.12;102088.56;5045405;28;20291;-75
2022/06/11 08:09:41;;;;;;;14.95;3.40;;;;;;;26.14;56.53;102099.53;5029850;28;20029;-75
2022/06/11 08:12:07;;;;;;;10.25;2.78;;;;;;;25.38;59.28;102101.41;5029637;28;20017;-75
2022/06/11 08:14:32;;;;;;;15.65;3.53;;;;;;;25.45;57.82;102102.16;5030364;28;20159;-75
2022/06/11 08:16:58;;;;;;;15.45;3.50;;;;;;;25.91;57.59;102104.75;5047842;28;20515;-75
2022/06/11 08:19:23;;;;;;;13.75;3.58;;;;;;;26.60;56.07;102109.03;5048279;28;20112;-75
2022/06/11 08:21:48;;;;;;;14.73;3.22;;;;;;;26.26;56.21;102108.59;5011037;28;20131;-75
2022/06/11 08:24:14;;;;;;;13.05;2.60;;;;;;;26.61;55.76;102099.03;5046764;28;20496;-75
2022/06/11 08:26:39;;;;;;;14.95;2.90;;;;;;;27.01;55.39;102103.97;5031079;28;20050;-75
2022/06/11 08:29:05;;;;;;;10.80;3.22;;;;;;;27.71;53.93;102108.75;5029727;28;20033;-75
2022/06/11 08:31:30;;;;;;;13.73;3.05;;;;;;;27.70;53.98;102115.25;5048498;28;20031;-75
2022/06/11 08:33:55;;;;;;;11.70;2.90;;;;;;;27.85;53.55;102104.81;5029480;28;20060;-75
2022/06/11 08:36:21;;;;;;;17.55;3.88;;;;;;;27.83;54.21;102112.31;5048177;28;20474;-75
2022/06/11 08:38:46;;;;;;;12.85;3.80;;;;;;;27.51;53.40;102108.25;5045172;28;20033;-75
2022/06/11 08:41:20;;;;;;;15.38;3.85;;;;;;;26.21;56.02;102111.13;5025019;28;20179;-75
2022/06/11 08:44:12;;;;;;;10.27;2.85;;;;;;;26.02;56.29;102112.13;5028823;28;20024;-75
2022/06/11 08:46:45;;;;;;;14.98;4.20;;;;;;;26.75;55.33;102115.97;5033816;28;20047;-75
2022/06/11 08:49:21;;;;;;;9.55;2.35;;;;;;;27.61;54.44;102125.63;5046687;28;20016;-75
2022/06/11 08:52:09;;;;;;;12.02;3.10;;;;;;;27.88;53.28;102114.34;5045134;28;20025;-75
2022/06/11 08:54:39;;;;;;;13.88;2.92;;;;;;;28.51;51.46;102118.22;5045751;28;20461;-75
2022/06/11 08:57:10;;;;;;;13.48;3.17;;;;;;;28.48;51.79;102119.53;5046167;28;20103;-75
2022/06/11 08:59:57;;;;;;;13.63;3.22;;;;;;;27.78;52.21;102127.63;5044810;28;20024;-75
2022/06/11 09:02:45;;;;;;;10.30;2.92;;;;;;;27.31;52.39;102125.66;5045950;28;20027;-75
2022/06/11 09:05:16;;;;;;;16.52;3.42;;;;;;;26.84;52.76;102130.84;5042913;28;20040;-75
2022/06/11 09:08:03;;;;;;;11.82;2.63;;;;;;;26.39;54.80;102114.88;5045465;28;20611;-75
2022/06/11 09:11:06;;;;;;;16.92;2.92;;;;;;;24.92;57.86;102118.66;5046421;28;20487;-75
2022/06/11 09:13:46;;;;;;;15.25;3.40;;;;;;;24.42;56.50;102124.63;5047954;28;20112;-75
2022/06/11 09:16:33;;;;;;;10.95;2.75;;;;;;;25.32;57.86;102121.19;5029527;28;20037;-75
2022/06/11 09:19:15;;;;;;;13.27;2.58;;;;;;;26.92;54.75;102117.00;5030423;28;20500;-75
2022/06/11 09:22:26;;;;;;;12.85;2.75;;;;;;;27.26;54.34;102123.66;5047779;28;20449;-75
2022/06/11 09:25:04;;;;;;;15.10;3.58;;;;;;;28.61;51.56;102117.59;5046457;28;20024;-75
2022/06/11 09:27:36;;;;;;;15.75;3.35;;;;;;;29.14;49.93;102127.38;5030549;28;20112;-75
2022/06/11 09:30:08;;;;;;;9.60;2.58;;;;;;;29.43;49.25;102127.31;5049819;28;20440;-75
2022/06/11 09:32:52;;;;;;;12.65;2.92;;;;;;;29.79;45.37;102128.78;5046555;28;20370;-75
2022/06/11 09:35:30;;;;;;;10.38;2.28;;;;;;;30.31;45.86;102106.69;5044744;28;20032;-75
2022/06/11 09:38:17;;;;;;;10.05;2.65;;;;;;;30.13;45.76;102128.72;5047577;28;20414;-75
2022/06/11 09:40:52;;;;;;;8.27;2.42;;;;;;;30.62;43.94;102126.13;5046715;28;20040;-75
2022/06/11 09:43:31;;;;;;;8.73;2.10;;;;;;;29.81;44.52;102107.59;5048845;28;20029;-75
2022/06/11 09:46:03;;;;;;;13.77;2.67;;;;;;;29.79;43.42;102122.47;5047143;28;20024;-75
2022/06/11 09:48:50;;;;;;;8.30;2.17;;;;;;;30.07;45.47;102136.00;5048357;28;20021;-75
2022/06/11 09:51:27;;;;;;;9.63;2.60;;;;;;;29.61;43.79;102137.13;5028948;28;20099;-75
2022/06/11 09:54:16;;;;;;;10.43;2.60;;;;;;;29.07;45.85;102142.94;5017696;28;20040;-75
2022/06/11 09:56:47;;;;;;;8.93;2.15;;;;;;;28.87;47.52;102143.38;5026267;28;20025;-75
2022/06/11 09:59:44;;;;;;;10.48;2.53;;;;;;;27.94;47.51;102145.13;5045169;28;20051;-75
2022/06/11 10:05:45;;;;;;;10.00;2.08;;;;;;;27.32;48.83;102138.13;5044738;28;20432;-75
2022/06/11 10:08:28;;;;;;;6.22;1.88;;;;;;;27.95;47.12;102152.22;5025239;28;20027;-74
2022/06/11 10:10:55;;;;;;;7.07;2.15;;;;;;;28.01;45.07;102143.97;5047441;28;20088;-74
2022/06/11 10:13:32;;;;;;;9.98;2.40;;;;;;;27.48;45.53;102147.50;5046332;28;20509;-74
2022/06/11 10:16:05;;;;;;;9.98;2.65;;;;;;;27.60;47.80;102139.41;5045124;28;20028;-75
2022/06/11 10:18:36;;;;;;;49.10;3.45;;;;;;;28.22;44.95;102137.13;5046147;28;20021;-75
2022/06/11 10:21:11;;;;;;;867.53;129.57;;;;;;;29.15;43.81;102142.59;5027399;28;20499;-75
2022/06/11 10:23:45;;;;;;;27.50;3.63;;;;;;;29.30;43.36;102140.16;5036699;28;20109;-75
2022/06/11 10:26:35;;;;;;;16.63;2.67;;;;;;;29.92;43.12;102155.66;5046449;28;20021;-75
2022/06/11 10:29:18;;;;;;;28.38;2.97;;;;;;;30.42;42.26;102155.81;5042787;28;20431;-73
2022/06/11 10:31:53;;;;;;;5.30;1.73;;;;;;;30.69;40.91;102156.72;5045431;28;20052;-73
2022/06/11 10:34:22;;;;;;;16.65;2.17;;;;;;;30.38;44.08;102158.25;5049716;28;20105;-72
2022/06/11 10:36:50;;;;;;;8.38;2.30;;;;;;;31.00;41.43;102154.38;5048178;28;20055;-70
2022/06/11 10:39:28;;;;;;;7.82;2.25;;;;;;;30.72;40.16;102142.56;5049516;28;20046;-71
2022/06/11 10:42:21;;;;;;;5.43;1.88;;;;;;;30.52;40.97;102164.13;5048102;28;20151;-77
2022/06/11 10:44:49;;;;;;;4.78;1.40;;;;;;;31.19;41.40;102162.22;5019296;28;20021;-73
2022/06/11 10:47:24;;;;;;;5.13;1.27;;;;;;;31.59;40.81;102166.44;5047998;28;20393;-78
2022/06/11 10:50:18;;;;;;;3.13;1.25;;;;;;;30.70;40.78;102165.72;5045573;28;20028;-74
2022/06/11 10:52:59;;;;;;;3.15;1.00;;;;;;;31.77;39.84;102176.94;5047030;28;20085;-74
2022/06/11 10:55:45;;;;;;;4.93;1.02;;;;;;;31.75;40.19;102171.75;5030288;28;20025;-74
2022/06/11 10:58:44;;;;;;;3.70;1.10;;;;;;;32.12;39.17;102176.44;5057700;28;20115;-74
2022/06/11 11:01:24;;;;;;;9.48;1.40;;;;;;;32.84;39.08;102175.97;5067509;28;20099;-74
2022/06/11 11:03:58;;;;;;;2.00;0.85;;;;;;;32.63;37.89;102159.50;5068218;28;20367;-74
2022/06/11 11:06:32;;;;;;;3.30;1.00;;;;;;;31.97;40.49;102179.88;5065073;28;20038;-75
2022/06/11 11:09:02;;;;;;;3.17;0.85;;;;;;;31.56;38.83;102168.59;5063056;28;20031;-75
2022/06/11 11:11:33;;;;;;;4.60;1.23;;;;;;;31.02;40.56;102179.50;5066266;28;20040;-75
2022/06/11 11:14:13;;;;;;;2.97;0.82;;;;;;;31.28;40.45;102174.31;5066014;28;20055;-74
2022/06/11 11:16:40;;;;;;;3.05;0.73;;;;;;;31.23;40.60;102179.69;5065242;28;20063;-74
2022/06/11 11:19:25;;;;;;;2.47;0.80;;;;;;;30.76;39.77;102181.06;5063794;28;20025;-74
2022/06/11 11:21:57;;;;;;;5.97;0.98;;;;;;;30.84;40.20;102174.34;5068590;28;20025;-74
2022/06/11 11:24:34;;;;;;;3.05;1.20;;;;;;;30.87;42.69;102174.69;5068181;28;20403;-74
2022/06/11 11:27:07;;;;;;;8.82;1.17;;;;;;;30.25;40.93;102164.84;5069371;28;20373;-74
2022/06/11 11:29:35;;;;;;;6.40;1.40;;;;;;;29.58;41.46;102162.13;5069525;28;20542;-74
2022/06/11 11:32:24;;;;;;;5.72;1.13;;;;;;;30.54;41.90;102167.44;5066892;28;20422;-74
2022/06/11 11:34:50;;;;;;;4.53;1.08;;;;;;;31.03;42.08;102167.50;5061005;28;20032;-74
2022/06/11 11:37:23;;;;;;;3.40;1.10;;;;;;;31.02;40.85;102184.94;5063113;28;20500;-75
2022/06/11 11:39:51;;;;;;;3.97;0.88;;;;;;;31.39;40.08;102180.69;5064464;28;20047;-75
2022/06/11 11:42:23;;;;;;;4.22;1.27;;;;;;;30.94;39.33;102179.94;5064073;28;20523;-75
2022/06/11 11:44:51;;;;;;;2.78;1.15;;;;;;;31.00;40.25;102181.66;5064039;28;20083;-75
2022/06/11 11:47:22;;;;;;;3.20;0.88;;;;;;;31.00;41.41;102176.19;5065923;28;20043;-75